createdAt,value
2023-06-17T00:00:40.197Z,24.12
2023-06-17T00:06:02.102Z,24.11
2023-06-17T00:11:24.072Z,24.10
2023-06-17T00:16:46.058Z,24.09
2023-06-17T00:22:09.903Z,24.09
2023-06-17T00:27:31.891Z,24.08
2023-06-17T00:32:54.359Z,24.07
2023-06-17T00:38:16.398Z,24.06
2023-06-17T00:43:38.273Z,24.06
2023-06-17T00:49:00.335Z,24.05
2023-06-17T00:54:22.241Z,24.03
2023-06-17T00:59:45.774Z,24.03
2023-06-17T01:05:14.277Z,24.02
2023-06-17T01:10:58.902Z,24.02
2023-06-17T01:16:21.891Z,23.99
2023-06-17T01:21:44.731Z,23.97
2023-06-17T01:27:06.574Z,23.99
2023-06-17T01:32:28.632Z,23.96
2023-06-17T01:37:59.704Z,23.97
2023-06-17T01:43:22.675Z,23.96
2023-06-17T01:48:44.990Z,23.96
2023-06-17T01:54:07.079Z,23.95
2023-06-17T01:59:29.903Z,23.94
2023-06-17T02:04:52.337Z,23.94
2023-06-17T02:10:14.660Z,23.93
2023-06-17T02:15:36.677Z,23.92
2023-06-17T02:20:58.601Z,23.92
2023-06-17T02:26:21.019Z,23.90
2023-06-17T02:31:42.934Z,23.88
2023-06-17T02:37:05.250Z,23.88
2023-06-17T02:42:27.141Z,23.87
2023-06-17T02:47:49.003Z,23.87
2023-06-17T02:53:11.921Z,23.85
2023-06-17T02:58:33.825Z,23.85
2023-06-17T03:03:56.660Z,23.84
2023-06-17T03:09:19.153Z,23.82
2023-06-17T03:14:41.080Z,23.81
2023-06-17T03:20:03.314Z,23.80
2023-06-17T03:25:25.208Z,23.79
2023-06-17T03:30:47.359Z,23.78
2023-06-17T03:36:09.270Z,23.77
2023-06-17T03:41:31.091Z,23.75
2023-06-17T03:46:53.031Z,23.75
2023-06-17T03:52:14.828Z,23.74
2023-06-17T03:57:36.612Z,23.73
2023-06-17T04:02:58.678Z,23.73
2023-06-17T04:08:21.069Z,23.72
2023-06-17T04:13:42.901Z,23.71
2023-06-17T04:19:04.798Z,23.71
2023-06-17T04:24:27.136Z,23.69
2023-06-17T04:29:49.450Z,23.68
2023-06-17T04:35:12.386Z,23.61
2023-06-17T04:40:34.183Z,23.24
2023-06-17T04:45:55.985Z,22.94
2023-06-17T04:51:19.284Z,22.81
2023-06-17T04:56:41.864Z,22.70
2023-06-17T05:02:04.560Z,22.72
2023-06-17T05:07:26.385Z,22.77
2023-06-17T05:12:48.388Z,22.75
2023-06-17T05:18:10.439Z,22.65
2023-06-17T05:23:32.327Z,22.58
2023-06-17T05:28:55.109Z,22.54
2023-06-17T05:34:16.935Z,22.52
2023-06-17T05:39:38.931Z,22.51
2023-06-17T05:45:00.949Z,22.48
2023-06-17T05:50:24.583Z,22.43
2023-06-17T05:55:46.575Z,22.48
2023-06-17T06:01:08.397Z,22.63
2023-06-17T06:06:31.257Z,22.76
2023-06-17T06:11:54.837Z,22.85
2023-06-17T06:17:16.689Z,22.94
2023-06-17T06:22:38.959Z,23.01
2023-06-17T06:28:00.905Z,23.06
2023-06-17T06:33:24.242Z,23.12
2023-06-17T06:38:46.254Z,23.14
2023-06-17T06:44:12.267Z,23.17
2023-06-17T06:49:35.154Z,23.20
2023-06-17T06:54:57.432Z,23.22
2023-06-17T07:00:20.150Z,23.26
2023-06-17T07:05:42.501Z,23.28
2023-06-17T07:11:04.349Z,23.29
2023-06-17T07:16:26.570Z,23.29
2023-06-17T07:21:50.378Z,23.31
2023-06-17T07:27:13.752Z,23.33
2023-06-17T07:32:35.685Z,23.34
2023-06-17T07:37:57.645Z,23.34
2023-06-17T07:43:19.518Z,23.37
2023-06-17T07:48:41.467Z,23.38
2023-06-17T07:54:03.337Z,23.39
2023-06-17T07:59:25.242Z,23.40
2023-06-17T08:04:49.016Z,23.41
2023-06-17T08:10:11.185Z,23.41
2023-06-17T08:15:33.145Z,23.43
2023-06-17T08:20:55.087Z,23.44
2023-06-17T08:26:16.926Z,23.46
2023-06-17T08:31:38.754Z,23.47
2023-06-17T08:37:05.166Z,23.47
2023-06-17T08:42:30.238Z,23.49
2023-06-17T08:47:52.551Z,23.48
2023-06-17T08:53:15.982Z,23.49
2023-06-17T08:58:39.216Z,23.49
2023-06-17T09:04:03.349Z,23.49
2023-06-17T09:09:25.135Z,23.50
2023-06-17T09:14:49.919Z,23.50
2023-06-17T09:20:16.482Z,23.52
2023-06-17T09:25:38.291Z,23.54
2023-06-17T09:31:05.386Z,23.55
2023-06-17T09:36:27.515Z,23.54
2023-06-17T09:41:49.694Z,23.54
2023-06-17T09:47:11.637Z,23.57
2023-06-17T09:52:36.534Z,23.56
2023-06-17T09:58:03.024Z,23.57
2023-06-17T10:03:25.639Z,23.58
2023-06-17T10:08:53.809Z,23.60
2023-06-17T10:14:22.231Z,23.60
2023-06-17T10:19:44.929Z,23.60
2023-06-17T10:25:07.613Z,23.60
2023-06-17T10:30:30.441Z,23.61
2023-06-17T10:36:07.380Z,23.62
2023-06-17T10:41:45.979Z,23.64
2023-06-17T10:47:22.521Z,23.64
2023-06-17T10:52:46.744Z,23.63
2023-06-17T10:58:08.747Z,23.64
2023-06-17T11:03:31.112Z,23.65
2023-06-17T11:08:56.408Z,23.66
2023-06-17T11:14:21.669Z,23.66
2023-06-17T11:19:44.531Z,23.65
2023-06-17T11:25:06.893Z,23.68
2023-06-17T11:30:28.907Z,23.68
2023-06-17T11:35:54.551Z,23.68
2023-06-17T11:41:17.114Z,23.68
2023-06-17T11:46:39.163Z,23.69
2023-06-17T11:52:03.540Z,23.70
2023-06-17T11:57:27.143Z,23.70
2023-06-17T12:02:49.338Z,23.72
2023-06-17T12:08:11.295Z,23.71
2023-06-17T12:13:43.269Z,23.74
2023-06-17T12:19:07.721Z,23.74
2023-06-17T12:24:30.117Z,23.73
2023-06-17T12:29:52.065Z,23.75
2023-06-17T12:35:16.049Z,23.76
2023-06-17T12:40:37.951Z,23.75
2023-06-17T12:46:01.007Z,23.76
2023-06-17T12:51:23.198Z,23.80
2023-06-17T12:56:45.554Z,23.88
2023-06-17T13:02:08.194Z,23.93
2023-06-17T13:07:30.037Z,23.94
2023-06-17T13:12:51.896Z,23.94
2023-06-17T13:18:16.497Z,23.94
2023-06-17T13:23:38.419Z,23.92
2023-06-17T13:29:05.588Z,23.93
2023-06-17T13:34:28.001Z,23.93
2023-06-17T13:39:49.917Z,23.94
2023-06-17T13:45:15.496Z,23.95
2023-06-17T13:50:37.822Z,23.97
2023-06-17T13:56:00.440Z,23.98
2023-06-17T14:01:22.594Z,24.00
2023-06-17T14:06:47.522Z,24.00
2023-06-17T14:12:12.664Z,24.01
2023-06-17T14:17:34.686Z,24.02
2023-06-17T14:23:00.655Z,24.04
2023-06-17T14:28:22.613Z,24.04
2023-06-17T14:33:44.458Z,24.04
2023-06-17T14:39:06.347Z,24.04
2023-06-17T14:44:28.962Z,24.04
2023-06-17T14:49:53.621Z,24.05
2023-06-17T14:55:16.504Z,24.05
2023-06-17T15:00:38.483Z,24.04
2023-06-17T15:06:00.384Z,24.06
2023-06-17T15:11:22.239Z,24.07
2023-06-17T15:16:44.089Z,24.06
2023-06-17T15:22:06.584Z,24.06
2023-06-17T15:27:28.829Z,24.08
2023-06-17T15:32:52.820Z,24.08
2023-06-17T15:38:14.722Z,24.09
2023-06-17T15:43:37.048Z,24.09
2023-06-17T15:48:59.108Z,24.09
2023-06-17T15:54:26.667Z,24.10
2023-06-17T15:59:48.763Z,24.10
2023-06-17T16:05:11.835Z,24.10
2023-06-17T16:10:34.182Z,24.10
2023-06-17T16:15:56.320Z,24.10
2023-06-17T16:21:18.184Z,24.10
2023-06-17T16:26:40.083Z,24.11
2023-06-17T16:32:02.000Z,24.11
2023-06-17T16:37:23.906Z,24.10
2023-06-17T16:42:46.361Z,24.10
2023-06-17T16:48:10.488Z,24.12
2023-06-17T16:53:33.848Z,24.12
2023-06-17T16:58:55.920Z,24.12
2023-06-17T17:04:17.976Z,24.14
2023-06-17T17:09:41.476Z,24.17
2023-06-17T17:15:03.472Z,24.21
2023-06-17T17:20:25.770Z,24.25
2023-06-17T17:25:47.627Z,24.30
2023-06-17T17:31:10.100Z,24.37
2023-06-17T17:36:32.358Z,24.41
2023-06-17T17:41:54.188Z,24.47
2023-06-17T17:47:19.063Z,24.50
2023-06-17T17:52:41.465Z,24.50
2023-06-17T17:58:03.368Z,24.54
2023-06-17T18:03:25.398Z,24.54
2023-06-17T18:08:47.330Z,24.55
2023-06-17T18:14:09.190Z,24.56
2023-06-17T18:19:31.283Z,24.58
2023-06-17T18:24:53.198Z,24.57
2023-06-17T18:30:15.355Z,24.58
2023-06-17T18:35:37.266Z,24.58
2023-06-17T18:40:59.173Z,24.57
2023-06-17T18:46:21.978Z,24.57
2023-06-17T18:51:44.292Z,24.57
2023-06-17T18:57:06.392Z,24.62
2023-06-17T19:02:29.466Z,24.63
2023-06-17T19:07:51.362Z,24.65
2023-06-17T19:13:13.211Z,24.66
2023-06-17T19:18:35.097Z,24.66
2023-06-17T19:23:57.047Z,24.62
2023-06-17T19:29:18.916Z,24.58
2023-06-17T19:34:41.167Z,24.53
2023-06-17T19:40:03.336Z,24.52
2023-06-17T19:45:29.734Z,24.49
2023-06-17T19:50:52.080Z,24.49
2023-06-17T19:56:14.536Z,24.47
2023-06-17T20:01:36.842Z,24.46
2023-06-17T20:07:00.152Z,24.45
2023-06-17T20:12:22.627Z,24.44
2023-06-17T20:17:44.643Z,24.42
2023-06-17T20:23:06.576Z,24.41
2023-06-17T20:28:29.601Z,24.40
2023-06-17T20:33:51.496Z,24.38
2023-06-17T20:39:13.404Z,24.38
2023-06-17T20:44:35.270Z,24.36
2023-06-17T20:49:57.120Z,24.35
2023-06-17T20:55:19.060Z,24.35
2023-06-17T21:00:40.979Z,24.33
2023-06-17T21:06:03.123Z,24.33
2023-06-17T21:11:25.155Z,24.32
2023-06-17T21:16:47.073Z,24.31
2023-06-17T21:22:08.926Z,24.30
2023-06-17T21:27:31.049Z,24.30
2023-06-17T21:32:52.938Z,24.29
2023-06-17T21:38:14.953Z,24.26
2023-06-17T21:43:36.786Z,24.24
2023-06-17T21:48:58.661Z,24.21
2023-06-17T21:54:21.206Z,24.20
2023-06-17T21:59:43.338Z,24.18
2023-06-17T22:05:08.068Z,24.17
2023-06-17T22:10:29.932Z,24.15
2023-06-17T22:15:52.406Z,24.15
2023-06-17T22:21:14.276Z,24.14
2023-06-17T22:26:36.299Z,24.14
2023-06-17T22:31:58.196Z,24.16
2023-06-17T22:37:20.926Z,24.17
2023-06-17T22:42:42.899Z,24.18
2023-06-17T22:48:04.967Z,24.17
2023-06-17T22:53:27.149Z,24.18
2023-06-17T22:58:49.464Z,24.20
2023-06-17T23:04:11.539Z,24.20
2023-06-17T23:09:33.685Z,24.20
2023-06-17T23:14:55.723Z,24.21
2023-06-17T23:20:17.621Z,24.20
2023-06-17T23:25:39.500Z,24.20
2023-06-17T23:31:01.767Z,24.20
2023-06-17T23:36:24.371Z,24.21
2023-06-17T23:41:46.593Z,24.22
2023-06-17T23:47:09.349Z,24.21
2023-06-17T23:52:31.146Z,24.21
2023-06-17T23:57:52.950Z,24.20
